METAR Data
IDs: Format: Raw Decoded Include TAF

Data at: 1527 UTC 24 Aug 2019

PAPG 241456Z 00000KT 10SM OVC003 11/10 A2964 RMK AO2 RAE24 SLP041 P0000 60005 T01060100 53012
PAPG 241356Z 00000KT 10SM -RA BKN003 OVC017 10/10 A2963 RMK AO2 SLP036 P0003 T01000100
PAPG 241256Z AUTO 00000KT 10SM -RA OVC003 10/10 A2962 RMK AO2 SLP033 P0002 T01000100
PAPG 241241Z AUTO 00000KT 7SM -RA BKN003 OVC017 10/10 A2962 RMK AO2 P0001
PAPG 241230Z AUTO 00000KT 8SM -RA SCT003 OVC015 11/10 A2962 RMK AO2 P0001
PAPG 241156Z AUTO 03005KT 10SM -RA SCT004 BKN010 OVC026 11/10 A2961 RMK AO2 CIG 008V012 SLP029 P0003 60014 7//// T01060100 10133 20106 53008
PAPG 241056Z AUTO 04007KT 10SM -RA BKN004 BKN033 OVC043 11/10 A2960 RMK AO2 RAB02 CIG 003V008 SLP026 P0005 T01060100
PAPG 241047Z AUTO 03004KT 10SM -RA BKN007 BKN033 OVC043 11/10 A2960 RMK AO2 RAB02 CIG 003V011 P0004
PAPG 241039Z AUTO 04005KT 10SM -RA FEW007 BKN034 OVC043 11/10 A2960 RMK AO2 RAB02 P0003
PAPG 240956Z AUTO 07006KT 10SM BKN034 OVC043 11/10 A2959 RMK AO2 RAE13B39E53 SLPNO P0000 T01060100
PAPG 240856Z AUTO VRB03KT 10SM -RA FEW026 SCT032 OVC048 13/11 A2958 RMK AO2 RAB0759 SLPNO P0003 60006 T01280111 401330106 51006
PAPG 240756Z AUTO 10004KT 10SM OVC050 12/11 A2958 RMK AO2 RAE56 SLPNO P0002 T01220106
PAPG 240656Z AUTO 01006KT 10SM -RA OVC055 11/10 A2957 RMK AO2 RAB01E17B41 SLPNO P0001 T01110100
PAPG 240556Z 00000KT 10SM SCT023 BKN043 OVC070 12/11 A2957 RMK AO2 RAB31E52 SLPNO P0001 60032 T01170111 10133 20106 50004
PAPG 240552Z 00000KT 10SM SCT023 BKN043 OVC070 12/11 A2957 RMK AO2 RAB31E52 P0001
PAPG 240456Z 04004KT 10SM FEW013 BKN021 OVC039 11/10 A2957 RMK AO2 RAE52 SLPNO P0003 T01060100
PAPG 240446Z 04004KT 10SM -RA SCT013 BKN021 OVC026 11/11 A2956 RMK AO2 P0003
PAPG 240435Z 03007KT 10SM -RA BKN013 BKN018 OVC026 11/11 A2956 RMK AO2 P0003
PAPG 240404Z 04007KT 4SM -RA BR FEW015 BKN026 OVC034 12/12 A2955 RMK AO2 P0001
PAPG 240356Z 00000KT 2 1/2SM -RA BR FEW015 SCT024 OVC032 12/12 A2955 RMK AO2 VIS 1 1/2V5 RAB31 SLPNO P0008 T01220117
PAPG 240256Z 00000KT 10SM SCT024 BKN047 OVC060 12/12 A2955 RMK AO2 RAE48 SLPNO P0005 60020 T01220122 51004
PAPG 240245Z 36003KT 10SM -RA SCT024 BKN033 OVC070 13/12 A2954 RMK AO2 P0005
PAPG 240238Z 00000KT 10SM -RA BKN024 BKN033 OVC055 13/12 A2954 RMK AO2 P0005
PAPG 240156Z 29004KT 5SM -RA BR SCT029 BKN036 OVC044 13/12 A2954 RMK AO2 SLPNO P0008 T01280122
PAPG 240151Z 32003KT 6SM -RA BR FEW027 BKN034 OVC044 13/12 A2954 RMK AO2 P0006
PAPG 240103Z 29004KT 10SM -RA FEW009 BKN017 OVC045 13/12 A2953 RMK AO2 P0001
PAPG 240056Z 27003KT 10SM -RA FEW012 BKN031 OVC055 13/12 A2953 RMK AO2 SLPNO P0007 T01280122
PAPG 232356Z 14004KT 5SM -RA BR FEW021 BKN037 OVC044 13/12 A2952 RMK AO2 SLPNO P0005 6//// T01280117
PAPG 232256Z 12009KT 5SM -RA BR SCT024 OVC039 13/11 A2951 RMK AO2 RAB14 SLPNO T01280111
PAPG 232156Z 12007KT 8SM -RA BKN045 OVC055 13/11 A2951 RMK AO2 SLP997 P0012 T0128011
PAPG 232056Z 13008 KT 100V170 10SM -RA OVC060 13/11 A2951 RMK AO2 SLP995 P0008 60020 T01280106 56009
PAPG 231956Z 12009G14KT 10SM -RA OVC070 13/11 A2951 RMK AO2 SLP997 P0004 T01280106
PAPG 231856Z 12005KT 10SM -RA OVC060 12/11 A2952 RMK AO2 SLP001 P0008 T01220106
PAPG 231756Z VRB06G15KT 10SM -RA SCT050 OVC070 12/10 A2953 RMK A02 SLP004 P0010 60037 T01220100 10122 20100 56008
PAPG 231656Z VRB06KT 10SM -RA BKN047 OVC055 12/10 A2954 RMK AO2 SLP006 P0004 T01170100
PAPG 231556Z VRB03KT 10SM -RA OVC042 11/10 A2955 RMK AO2 SLPO1O P0009 T01110100
PAPG 231456Z 00000KT 10SM -RA BKN017 OVC040 11/09 A2956 RMK AO2 SLP012 P0009 60014 T01110094 56008
PAPG 231409Z 35009KT 10SM -RA SCT021 BKN026 OVC035 11/09 A2955 RMK AO2 P0002
PAPG 231356Z 01009KT 10SM -RA FEW022 OVC035 11/09 A2956 RMK AO2 SLP012 P0003 T01060089
PAPG 231256Z AUTO VRB06KT 10SM -RA OVC037 11/09 A2957 RMK AO2 RAB03 SLP016 P0002 T01110089
PAPG 231156Z AUTO VRB04KT 10SM OVC035 11/09 A2958 RMK AO2 RAE56 SLP020 P0002 60027 70136 T01110089 10111 20100 58013
PAPG 231056Z AUTO VRB06KT 10SM -RA SCT024 SCT035 OVC042 11/09 A2960 RMK AO2 SLP026 P0004 T01110089
PAPG 231025Z AUTO 11003KT 10SM -RA BKN024 OVC046 11/09 A2960 RMK AO2 P0002
PAPG 230956Z AUTO VRB03KT 10SM -RA SCT022 OVC046 11/09 A2961 RMK AO2 SLP030 P0005 T01060089
PAPG 230856Z AUTO 11007G14KT 080V140 10SM -RA SCT025 OVC048 11/09 A2962 RMK AO2 SLP033 P0003 60016 T01060089 401170061 56014
PAPG 230811Z AUTO 12007G18KT 100V160 10SM -RA FEW021 BKN026 OVC055 11/08 A2962 RMK AO2 P0000
PAPG 230756Z AUTO 11009G19KT 080V150 10SM -RA SCT024 OVC055 11/08 A2963 RMK AO2 SLP036 P0006 T01060083
PAPG 230656Z AUTO 13008G16KT 10SM -RA FEW037 OVC065 11/08 A2965 RMK AO2 SLP043 P0007 T01060083
PAPG 230556Z AUTO 13007KT 080V150 10SM -RA SCT037 BKN048 OVC065 11/08 A2966 RMK AO2 SLP047 P0009 60046 T01060078 10111 20100 57024
PAPG 230456Z VRB06KT 10SM -RA SCT026 OVC036 11/08 A2969 RMK AO2 SLP057 P0006 T01060083
PAPG 230426Z 10011G19KT 10SM -RA FEW020 BKN030 OVC050 11/08 A2969 RMK AO2 P0005
PAPG 230356Z 10013G19KT 9SM -RA SCT023 BKN029 OVC050 11/08 A2970 RMK AO2 PK WND 15026/0323 SLP062 P0011 T01060083